Time;durP1;ratioP1;P1;durP2;ratioP2;P2;SDS_P1;SDS_P2;PMS_P1;PMS_P2;Temp;Humidity;BMP_temperature;BMP_pressure;BME280_temperature;BME280_humidity;BME280_pressure;Samples;Min_cycle;Max_cycle;Signal;HPM_P1;HPM_P2
2023/01/21 00:01:28;;;;;;;53.70;27.85;;;-1.30;99.90;;;;;;6243447;22;20730;-82
2023/01/21 00:04:13;;;;;;;65.53;30.77;;;-0.90;99.90;;;;;;6270865;22;20344;-82
2023/01/21 00:06:38;;;;;;;65.38;29.73;;;-0.70;99.90;;;;;;6268405;22;20487;-83
2023/01/21 00:09:04;;;;;;;55.83;29.05;;;-0.80;99.90;;;;;;6243434;22;20055;-82
2023/01/21 00:11:30;;;;;;;66.47;32.13;;;-0.70;99.90;;;;;;6269902;22;20018;-81
2023/01/21 00:13:57;;;;;;;65.70;31.85;;;-0.90;99.90;;;;;;6244795;22;20015;-83
2023/01/21 00:16:22;;;;;;;63.00;30.13;;;-1.10;99.90;;;;;;6270055;22;20057;-81
2023/01/21 00:18:48;;;;;;;64.28;30.10;;;-1.10;99.90;;;;;;6270323;22;20319;-82
2023/01/21 00:21:14;;;;;;;68.93;30.05;;;-0.90;99.90;;;;;;6270314;22;20082;-82
2023/01/21 00:23:40;;;;;;;65.43;29.73;;;-1.10;99.90;;;;;;6244951;22;20011;-83
2023/01/21 00:26:08;;;;;;;57.90;28.85;;;-1.40;99.90;;;;;;6244317;22;20039;-81
2023/01/21 00:28:35;;;;;;;62.35;28.00;;;-1.10;99.90;;;;;;6269661;22;20087;-82
2023/01/21 00:31:04;;;;;;;56.20;28.13;;;-1.30;99.90;;;;;;6244709;22;20027;-82
2023/01/21 00:33:31;;;;;;;55.05;27.10;;;-1.50;99.90;;;;;;6270362;22;20047;-83
2023/01/21 00:36:02;;;;;;;63.03;28.58;;;-1.50;99.90;;;;;;6244366;22;20027;-81
2023/01/21 00:38:29;;;;;;;58.10;28.52;;;-1.70;99.90;;;;;;6271095;22;20133;-84
2023/01/21 00:41:03;;;;;;;63.42;29.23;;;-1.30;99.90;;;;;;6270887;22;20015;-83
2023/01/21 00:43:29;;;;;;;59.13;29.13;;;-1.70;99.90;;;;;;6270384;22;20022;-84
2023/01/21 00:45:55;;;;;;;59.90;29.05;;;-1.50;99.90;;;;;;6244620;22;20090;-82
2023/01/21 00:48:21;;;;;;;58.15;28.48;;;-1.80;99.90;;;;;;6245679;22;20065;-82
2023/01/21 00:54:14;;;;;;;61.00;29.25;;;-1.60;99.90;;;;;;6270124;22;20016;-83
2023/01/21 00:56:40;;;;;;;61.30;28.10;;;-1.50;99.90;;;;;;6246022;22;20107;-81
2023/01/21 00:59:06;;;;;;;61.53;29.02;;;-1.70;99.90;;;;;;6244709;22;20011;-82
2023/01/21 01:01:36;;;;;;;66.75;29.17;;;-1.50;99.90;;;;;;6270048;22;20044;-81
2023/01/21 01:04:02;;;;;;;66.03;29.50;;;-1.50;99.90;;;;;;6271314;22;20015;-81
2023/01/21 01:06:27;;;;;;;61.45;28.58;;;-1.70;99.90;;;;;;6248056;22;20435;-81
2023/01/21 01:08:56;;;;;;;64.18;30.10;;;-1.40;99.90;;;;;;6270935;22;20024;-81
2023/01/21 01:11:24;;;;;;;64.85;29.33;;;-2.00;99.90;;;;;;6244218;22;20080;-81
2023/01/21 01:13:50;;;;;;;67.40;29.10;;;-1.40;99.90;;;;;;6272343;22;20062;-83
2023/01/21 01:16:15;;;;;;;61.17;28.67;;;-2.00;99.90;;;;;;6246027;22;20489;-81
2023/01/21 01:18:42;;;;;;;64.63;28.35;;;-2.00;99.90;;;;;;6270660;22;20351;-83
2023/01/21 01:21:26;;;;;;;66.85;30.00;;;-2.10;99.90;;;;;;6273005;22;20018;-84
2023/01/21 01:23:53;;;;;;;66.13;28.98;;;-2.10;99.90;;;;;;6271368;22;20035;-81
2023/01/21 01:26:20;;;;;;;64.53;31.67;;;-2.10;99.90;;;;;;6245336;22;20015;-83
2023/01/21 01:28:46;;;;;;;67.30;30.08;;;-1.60;99.90;;;;;;6245603;22;20015;-82
2023/01/21 01:31:15;;;;;;;63.00;28.75;;;-2.00;99.90;;;;;;6272906;22;20122;-82
2023/01/21 01:33:41;;;;;;;65.60;29.35;;;-1.70;99.90;;;;;;6271351;22;20016;-83
2023/01/21 01:36:11;;;;;;;61.20;29.08;;;-1.90;99.90;;;;;;6245698;22;20134;-82
2023/01/21 01:38:37;;;;;;;66.50;28.85;;;-2.10;99.90;;;;;;6245240;22;20339;-82
2023/01/21 01:41:03;;;;;;;70.47;30.08;;;-1.70;99.90;;;;;;6246844;22;20011;-83
2023/01/21 01:44:00;;;;;;;67.63;28.60;;;-2.00;99.90;;;;;;6271041;22;20057;-82
2023/01/21 01:46:29;;;;;;;60.65;28.52;;;-2.20;99.90;;;;;;6272130;22;20016;-83
2023/01/21 01:49:10;;;;;;;61.72;28.30;;;-1.80;99.90;;;;;;6272173;22;20016;-82
2023/01/21 01:51:49;;;;;;;72.90;31.00;;;-2.00;99.90;;;;;;6270664;22;20051;-83
2023/01/21 01:54:20;;;;;;;71.53;31.77;;;-1.70;99.90;;;;;;6269797;22;20102;-84
2023/01/21 01:56:49;;;;;;;74.53;31.75;;;-1.60;99.90;;;;;;6270225;22;20015;-84
2023/01/21 01:59:15;;;;;;;78.15;32.50;;;-2.30;99.90;;;;;;6271374;22;20012;-83
2023/01/21 02:01:41;;;;;;;77.43;33.55;;;-1.90;99.90;;;;;;6270200;22;20020;-84
2023/01/21 02:04:13;;;;;;;74.95;33.30;;;-2.30;99.90;;;;;;6270745;22;20106;-82
2023/01/21 02:07:17;;;;;;;79.95;32.72;;;-2.10;99.90;;;;;;6245375;22;20767;-83
2023/01/21 02:09:43;;;;;;;71.63;31.23;;;-2.10;99.90;;;;;;6271328;22;20094;-83
2023/01/21 02:12:09;;;;;;;78.80;32.75;;;-2.20;99.90;;;;;;6246043;22;20066;-81
2023/01/21 02:14:41;;;;;;;76.30;33.03;;;-2.40;99.90;;;;;;6268841;22;20015;-82
2023/01/21 02:17:28;;;;;;;73.13;31.42;;;-2.10;99.90;;;;;;6242964;22;20012;-82
2023/01/21 02:20:10;;;;;;;70.15;31.10;;;-1.90;99.90;;;;;;6243765;22;20020;-81
2023/01/21 02:22:46;;;;;;;74.50;30.27;;;-2.00;99.90;;;;;;6244398;22;20098;-83
2023/01/21 02:25:36;;;;;;;83.38;31.70;;;-1.80;99.90;;;;;;6269846;22;20011;-84
2023/01/21 02:28:53;;;;;;;83.35;32.78;;;-2.20;99.90;;;;;;6271550;22;20012;-81
2023/01/21 02:31:37;;;;;;;81.85;32.03;;;-1.70;99.90;;;;;;6181907;23;20298;-81
2023/01/21 02:34:10;;;;;;;76.25;31.73;;;-2.20;99.90;;;;;;6156724;23;20289;-83
2023/01/21 02:37:00;;;;;;;72.43;31.15;;;-2.10;99.90;;;;;;6181352;23;20099;-81
2023/01/21 02:39:49;;;;;;;73.55;30.50;;;-1.60;99.90;;;;;;6182053;23;20330;-82
2023/01/21 02:42:28;;;;;;;78.47;32.53;;;-2.30;99.90;;;;;;6182114;23;20348;-84
2023/01/21 02:45:08;;;;;;;73.68;32.20;;;-1.60;99.90;;;;;;6181440;23;20095;-84
2023/01/21 02:47:56;;;;;;;71.10;29.55;;;-2.10;99.90;;;;;;6208397;23;20041;-81
2023/01/21 02:50:30;;;;;;;70.20;29.60;;;-2.10;99.90;;;;;;6183936;23;20042;-81
2023/01/21 02:52:58;;;;;;;72.80;31.00;;;-1.70;99.90;;;;;;6184069;23;20094;-83
2023/01/21 02:55:34;;;;;;;68.55;29.88;;;-2.00;99.90;;;;;;6185148;23;20502;-83
2023/01/21 02:58:05;;;;;;;69.15;29.13;;;-2.10;99.90;;;;;;6185608;23;20016;-81
2023/01/21 03:00:51;;;;;;;70.28;29.10;;;-2.30;99.90;;;;;;6184719;23;20071;-82
2023/01/21 03:03:38;;;;;;;70.07;28.65;;;-2.30;99.90;;;;;;6183504;23;20021;-82
2023/01/21 03:06:38;;;;;;;69.10;29.80;;;-1.80;99.90;;;;;;6193701;22;20008;-84
2023/01/21 03:09:07;;;;;;;73.95;31.67;;;-2.00;99.90;;;;;;6244640;22;20088;-82
2023/01/21 03:11:33;;;;;;;75.53;31.70;;;-1.90;99.90;;;;;;6272007;22;20067;-80
2023/01/21 03:17:15;;;;;;;69.75;30.58;;;-2.30;99.90;;;;;;6271485;22;20016;-84
2023/01/21 03:19:58;;;;;;;67.20;30.23;;;-1.80;99.90;;;;;;6272225;22;20089;-82
2023/01/21 03:22:28;;;;;;;72.38;30.27;;;-2.40;99.90;;;;;;6271920;22;20012;-84
2023/01/21 03:24:57;;;;;;;80.75;31.10;;;-1.80;99.90;;;;;;6246093;22;20020;-84
2023/01/21 03:27:26;;;;;;;76.95;31.83;;;-2.30;99.90;;;;;;6246977;22;20008;-81
2023/01/21 03:29:56;;;;;;;76.30;32.10;;;-1.80;99.90;;;;;;6247042;22;20026;-83
2023/01/21 03:32:24;;;;;;;76.15;31.73;;;-1.80;99.90;;;;;;6270063;22;20016;-83
2023/01/21 03:35:07;;;;;;;87.95;33.30;;;-2.00;99.90;;;;;;6245617;22;20008;-81
2023/01/21 03:37:41;;;;;;;82.10;33.22;;;-1.70;99.90;;;;;;6271102;22;20054;-81
2023/01/21 03:40:14;;;;;;;76.13;32.42;;;-1.90;99.90;;;;;;6246410;22;20019;-84
2023/01/21 03:42:41;;;;;;;85.30;32.88;;;-1.50;99.90;;;;;;6271130;22;20022;-83
2023/01/21 03:45:08;;;;;;;77.10;33.22;;;-1.60;99.90;;;;;;6243759;22;20023;-84
2023/01/21 03:47:36;;;;;;;80.60;34.97;;;-1.90;99.90;;;;;;6270749;22;20023;-83
2023/01/21 03:50:36;;;;;;;89.80;34.97;;;-1.90;99.90;;;;;;6271309;22;20012;-80
2023/01/21 03:53:02;;;;;;;82.70;35.55;;;-1.70;99.90;;;;;;6271850;22;20093;-83
2023/01/21 03:55:27;;;;;;;85.32;35.03;;;-1.40;99.90;;;;;;6273014;22;20027;-82
2023/01/21 03:57:53;;;;;;;87.47;36.17;;;-1.50;99.90;;;;;;6245414;22;20110;-82
2023/01/21 04:00:19;;;;;;;83.70;36.00;;;-1.60;99.90;;;;;;6271631;22;20343;-82
2023/01/21 04:02:45;;;;;;;81.50;36.38;;;-1.30;99.90;;;;;;6244969;22;20015;-81
2023/01/21 04:05:10;;;;;;;79.22;35.97;;;-1.50;99.90;;;;;;6271483;22;20019;-82
2023/01/21 04:07:36;;;;;;;85.40;36.90;;;-1.50;99.90;;;;;;6278736;22;20025;-81
2023/01/21 04:10:02;;;;;;;85.72;36.53;;;-1.50;99.90;;;;;;6245548;22;20027;-81
2023/01/21 04:12:27;;;;;;;81.15;35.75;;;-1.20;99.90;;;;;;6218817;22;20016;-82
2023/01/21 04:14:53;;;;;;;92.22;36.97;;;-1.00;99.90;;;;;;6224223;22;20069;-83
2023/01/21 04:17:19;;;;;;;82.05;36.28;;;-1.20;99.90;;;;;;6246488;22;20137;-82
2023/01/21 04:19:44;;;;;;;83.75;37.53;;;-0.90;99.90;;;;;;6249359;22;20090;-82
2023/01/21 04:22:10;;;;;;;87.90;38.03;;;-1.10;99.90;;;;;;6245302;22;20008;-81
2023/01/21 04:24:36;;;;;;;84.00;36.35;;;-1.40;99.90;;;;;;6221191;22;20497;-83
2023/01/21 04:27:01;;;;;;;75.47;35.15;;;-0.70;99.90;;;;;;6197129;22;20015;-83
2023/01/21 04:29:27;;;;;;;82.97;36.30;;;-0.90;99.90;;;;;;6278325;22;20198;-82
2023/01/21 04:31:53;;;;;;;89.97;38.33;;;-0.70;99.90;;;;;;6246172;22;20090;-80
2023/01/21 04:34:18;;;;;;;87.55;36.95;;;-1.10;99.90;;;;;;6258075;22;20016;-81
2023/01/21 04:36:44;;;;;;;83.35;37.70;;;-0.90;99.90;;;;;;6221939;22;20098;-83
2023/01/21 04:39:10;;;;;;;80.70;35.90;;;-0.70;99.90;;;;;;6247414;22;20015;-82
2023/01/21 04:41:36;;;;;;;79.88;36.25;;;-0.70;99.90;;;;;;6222387;22;20054;-83
2023/01/21 04:44:01;;;;;;;86.13;37.05;;;-1.20;99.90;;;;;;6221516;22;20080;-83
2023/01/21 04:46:27;;;;;;;75.60;35.20;;;-0.90;99.90;;;;;;6247176;22;20019;-83
2023/01/21 04:48:53;;;;;;;75.30;35.28;;;-1.20;99.90;;;;;;6245006;22;20137;-82
2023/01/21 04:51:18;;;;;;;75.72;34.67;;;-1.10;99.90;;;;;;6245615;22;20592;-82
2023/01/21 04:53:44;;;;;;;77.80;35.80;;;-1.20;99.90;;;;;;6272619;22;20048;-82
2023/01/21 04:56:10;;;;;;;82.05;36.15;;;-1.20;99.90;;;;;;6245893;22;20008;-82
2023/01/21 04:58:35;;;;;;;83.10;37.35;;;-0.70;99.90;;;;;;6221577;22;20045;-82
2023/01/21 05:01:01;;;;;;;84.85;36.17;;;-0.60;99.90;;;;;;6220683;22;20020;-82
2023/01/21 05:03:27;;;;;;;90.85;35.13;;;-0.70;99.90;;;;;;6245034;22;20091;-83
2023/01/21 05:05:52;;;;;;;82.30;36.22;;;-0.90;99.90;;;;;;6219389;22;20018;-84
2023/01/21 05:08:18;;;;;;;80.97;36.78;;;-0.50;99.90;;;;;;6220166;22;20331;-83
2023/01/21 05:10:44;;;;;;;82.47;36.72;;;-1.20;99.90;;;;;;6245222;22;20019;-82
2023/01/21 05:13:09;;;;;;;81.53;36.13;;;-1.20;99.90;;;;;;6270458;22;20022;-82
2023/01/21 05:15:35;;;;;;;89.75;37.38;;;-1.10;99.90;;;;;;6248107;22;20004;-82
2023/01/21 05:18:01;;;;;;;87.35;37.75;;;-0.70;99.90;;;;;;6277116;22;20065;-81
2023/01/21 05:20:48;;;;;;;87.07;37.45;;;-1.10;99.90;;;;;;6261319;22;20019;-82
2023/01/21 05:23:14;;;;;;;87.07;35.33;;;-0.60;99.90;;;;;;6293636;22;20063;-82
2023/01/21 05:25:39;;;;;;;75.45;35.75;;;-1.30;99.90;;;;;;6284466;22;20016;-82
2023/01/21 05:28:05;;;;;;;80.00;34.97;;;-0.60;99.90;;;;;;6247644;22;20027;-83
2023/01/21 05:30:31;;;;;;;81.80;36.50;;;-0.70;99.90;;;;;;6273040;22;20027;-82
2023/01/21 05:32:56;;;;;;;72.85;33.35;;;-1.00;99.90;;;;;;6245857;22;20015;-83
2023/01/21 05:35:23;;;;;;;80.75;34.42;;;-1.20;99.90;;;;;;6272118;22;20410;-82
2023/01/21 05:37:49;;;;;;;73.63;33.97;;;-0.90;99.90;;;;;;6272949;22;20073;-83
2023/01/21 05:40:16;;;;;;;78.05;34.28;;;-1.10;99.90;;;;;;6247664;22;20042;-83
2023/01/21 05:42:42;;;;;;;74.13;33.42;;;-1.20;99.90;;;;;;6272292;22;20107;-83
2023/01/21 05:45:10;;;;;;;87.43;34.70;;;-1.10;99.90;;;;;;6245966;22;20042;-82
2023/01/21 05:47:36;;;;;;;80.22;35.75;;;-1.20;99.90;;;;;;6244374;22;20015;-82
2023/01/21 05:50:02;;;;;;;79.22;36.50;;;-1.40;99.90;;;;;;6270667;22;20019;-82
2023/01/21 05:52:28;;;;;;;79.63;34.92;;;-1.20;99.90;;;;;;6244594;22;20442;-82
2023/01/21 05:54:53;;;;;;;74.15;35.25;;;-1.60;99.90;;;;;;6269689;22;20023;-82
2023/01/21 05:57:19;;;;;;;80.38;34.40;;;-1.60;99.90;;;;;;6270024;22;20086;-83
2023/01/21 05:59:45;;;;;;;77.88;34.92;;;-1.70;99.90;;;;;;6270466;22;20035;-83
2023/01/21 06:02:10;;;;;;;87.68;36.58;;;-1.50;99.90;;;;;;6244919;22;20051;-84
2023/01/21 06:04:36;;;;;;;86.35;37.28;;;-1.70;99.90;;;;;;6243740;22;20019;-82
2023/01/21 06:07:01;;;;;;;99.38;37.92;;;-1.30;99.90;;;;;;6270530;22;20015;-84
2023/01/21 06:09:27;;;;;;;92.97;38.30;;;-1.60;99.90;;;;;;6271373;22;20526;-83
2023/01/21 06:11:53;;;;;;;79.38;35.47;;;-1.90;99.90;;;;;;6271840;22;20042;-82
2023/01/21 06:14:18;;;;;;;82.38;36.30;;;-1.40;99.90;;;;;;6269307;22;20015;-83
2023/01/21 06:16:44;;;;;;;81.78;35.13;;;-1.90;99.90;;;;;;6270699;22;20073;-82
2023/01/21 06:19:09;;;;;;;75.18;34.13;;;-1.80;99.90;;;;;;6245028;22;20012;-82
2023/01/21 06:21:35;;;;;;;80.10;35.30;;;-1.90;99.90;;;;;;6245246;22;20082;-83
2023/01/21 06:24:01;;;;;;;80.28;33.15;;;-2.30;99.90;;;;;;6244972;22;20023;-83
2023/01/21 06:26:27;;;;;;;81.20;35.58;;;-2.30;99.90;;;;;;6245017;22;20016;-81
2023/01/21 06:28:55;;;;;;;80.40;33.10;;;-2.00;99.90;;;;;;6271584;22;20019;-83
2023/01/21 06:31:21;;;;;;;85.07;36.08;;;-2.30;99.90;;;;;;6246240;22;20102;-82
2023/01/21 06:33:47;;;;;;;97.78;39.30;;;-2.00;99.90;;;;;;6245588;22;20039;-81
2023/01/21 06:39:54;;;;;;;80.13;34.20;;;-2.00;99.90;;;;;;6274486;22;20461;-82
2023/01/21 06:42:19;;;;;;;77.60;33.38;;;-1.70;99.90;;;;;;6272738;22;20012;-82
2023/01/21 06:44:45;;;;;;;91.72;37.75;;;-2.40;99.90;;;;;;6271268;22;20459;-82
2023/01/21 06:47:12;;;;;;;105.70;40.53;;;-1.70;99.90;;;;;;6272799;22;20015;-82
2023/01/21 06:49:38;;;;;;;99.15;37.53;;;-1.80;99.90;;;;;;6271130;22;20023;-82
2023/01/21 06:52:04;;;;;;;87.18;35.40;;;-2.20;99.90;;;;;;6271884;22;20019;-82
2023/01/21 06:54:30;;;;;;;86.82;36.00;;;-2.10;99.90;;;;;;6271146;22;20007;-82
2023/01/21 06:56:55;;;;;;;99.07;37.78;;;-1.80;99.90;;;;;;6271635;22;20437;-82
2023/01/21 06:59:21;;;;;;;93.70;36.33;;;-2.10;99.90;;;;;;6246132;22;20023;-83
2023/01/21 07:01:46;;;;;;;87.88;35.63;;;-2.10;99.90;;;;;;6272051;22;20015;-84
2023/01/21 07:04:12;;;;;;;80.78;33.80;;;-2.30;99.90;;;;;;6271953;22;20065;-84
2023/01/21 07:06:38;;;;;;;89.75;35.50;;;-1.90;99.90;;;;;;6273258;22;20050;-83
2023/01/21 07:09:04;;;;;;;82.07;33.60;;;-2.40;99.90;;;;;;6272931;22;20051;-82
2023/01/21 07:11:31;;;;;;;89.78;34.75;;;-1.90;99.90;;;;;;6248258;22;20107;-83
2023/01/21 07:13:56;;;;;;;80.82;35.50;;;-2.20;99.90;;;;;;6273544;22;20059;-84
2023/01/21 07:16:22;;;;;;;89.00;36.63;;;-1.90;99.90;;;;;;6247889;22;20455;-84
2023/01/21 07:18:48;;;;;;;104.22;38.25;;;-2.10;99.90;;;;;;6273993;22;20082;-84
2023/01/21 07:21:13;;;;;;;102.65;38.63;;;-2.40;99.90;;;;;;6274123;22;20087;-84
2023/01/21 07:23:39;;;;;;;101.35;39.33;;;-1.80;99.90;;;;;;6274735;22;20008;-83
2023/01/21 07:26:05;;;;;;;106.82;40.15;;;-2.30;99.90;;;;;;6275225;22;20003;-83
2023/01/21 07:28:31;;;;;;;102.70;40.47;;;-2.10;99.90;;;;;;6278654;22;20344;-84
2023/01/21 07:31:00;;;;;;;109.88;39.72;;;-1.70;99.90;;;;;;6274977;22;20427;-83
2023/01/21 07:33:26;;;;;;;106.32;40.60;;;-1.90;99.90;;;;;;6275726;22;20007;-82
2023/01/21 07:36:20;;;;;;;105.95;39.92;;;-1.80;99.90;;;;;;6271564;22;20107;-83
2023/01/21 07:38:45;;;;;;;114.53;41.85;;;-1.60;99.90;;;;;;6272236;22;20099;-83
2023/01/21 07:41:11;;;;;;;115.35;41.25;;;-1.50;99.90;;;;;;6271463;22;20099;-84
2023/01/21 07:43:37;;;;;;;110.20;40.00;;;-1.50;99.90;;;;;;6276673;22;20018;-83
2023/01/21 07:46:03;;;;;;;108.88;40.08;;;-1.90;99.90;;;;;;6271569;22;20011;-83
2023/01/21 07:48:28;;;;;;;101.68;38.55;;;-1.90;99.90;;;;;;6271320;22;20019;-83
2023/01/21 07:51:04;;;;;;;104.28;38.63;;;-2.20;99.90;;;;;;6246729;22;20022;-83
2023/01/21 07:53:29;;;;;;;109.80;39.53;;;-2.20;99.90;;;;;;6247182;22;20007;-84
2023/01/21 07:55:55;;;;;;;102.35;38.47;;;-1.70;99.90;;;;;;6274925;22;20096;-83
2023/01/21 07:58:21;;;;;;;96.22;37.63;;;-1.80;99.90;;;;;;6245919;22;20015;-83
2023/01/21 08:00:46;;;;;;;112.50;40.83;;;-2.00;99.90;;;;;;6270648;22;20091;-83
2023/01/21 08:03:12;;;;;;;102.60;38.17;;;-1.80;99.90;;;;;;6269214;22;20071;-84
2023/01/21 08:05:37;;;;;;;108.35;37.63;;;-2.00;99.90;;;;;;6271064;22;20030;-83
2023/01/21 08:08:28;;;;;;;101.45;38.03;;;-2.30;99.90;;;;;;6243919;22;20012;-83
2023/01/21 08:10:55;;;;;;;104.32;39.25;;;-2.20;99.90;;;;;;6215978;23;20050;-83
2023/01/21 08:13:21;;;;;;;104.35;38.08;;;-2.00;99.90;;;;;;6215197;23;20023;-83
2023/01/21 08:15:51;;;;;;;92.50;37.38;;;-2.30;99.90;;;;;;6189397;23;20016;-83
2023/01/21 08:18:17;;;;;;;97.57;36.05;;;-2.00;99.90;;;;;;6214273;23;20098;-83
2023/01/21 08:20:43;;;;;;;87.93;34.72;;;-1.80;99.90;;;;;;6190625;23;20375;-83
2023/01/21 08:23:08;;;;;;;90.07;35.72;;;-1.80;99.90;;;;;;6187915;23;20023;-83
2023/01/21 08:25:34;;;;;;;88.65;37.67;;;-2.30;99.90;;;;;;6213824;23;20341;-83
2023/01/21 08:28:00;;;;;;;96.72;37.00;;;-1.80;99.90;;;;;;6213828;23;20012;-84
2023/01/21 08:30:26;;;;;;;114.60;42.17;;;-2.00;99.90;;;;;;6188378;23;20094;-82
2023/01/21 08:32:51;;;;;;;113.50;41.53;;;-2.00;99.90;;;;;;6213167;23;20375;-83
2023/01/21 08:35:17;;;;;;;103.78;39.45;;;-1.90;99.90;;;;;;6189006;23;20020;-81
2023/01/21 08:37:43;;;;;;;113.10;39.75;;;-1.80;99.90;;;;;;6212037;23;20023;-83
2023/01/21 08:40:09;;;;;;;106.75;39.33;;;-1.70;99.90;;;;;;6188647;23;20091;-81
2023/01/21 08:42:35;;;;;;;96.57;38.22;;;-1.70;99.90;;;;;;6212499;23;20008;-83
2023/01/21 08:45:01;;;;;;;91.95;37.70;;;-2.20;99.90;;;;;;6188759;23;20066;-83
2023/01/21 08:47:27;;;;;;;82.85;34.20;;;-2.00;99.90;;;;;;6213955;23;20020;-82
2023/01/21 08:49:52;;;;;;;84.22;35.97;;;-2.10;99.90;;;;;;6189918;23;20731;-82
2023/01/21 08:52:59;;;;;;;88.55;36.38;;;-1.60;99.90;;;;;;6199186;23;20036;-84
2023/01/21 08:55:25;;;;;;;87.22;37.30;;;-1.60;99.90;;;;;;6238523;23;20340;-82
2023/01/21 08:57:54;;;;;;;92.22;38.70;;;-1.60;99.90;;;;;;6190224;23;20020;-82
2023/01/21 09:00:22;;;;;;;82.07;36.55;;;-2.10;99.90;;;;;;6213193;23;20074;-83
2023/01/21 09:02:47;;;;;;;86.40;37.80;;;-1.70;99.90;;;;;;6213312;23;20020;-82
2023/01/21 09:05:13;;;;;;;95.63;38.30;;;-1.80;99.90;;;;;;6210110;23;20383;-83
2023/01/21 09:07:39;;;;;;;82.70;35.55;;;-1.70;99.90;;;;;;6187776;23;20016;-82
2023/01/21 09:10:05;;;;;;;80.10;35.50;;;-2.00;99.90;;;;;;6222823;22;20020;-82
2023/01/21 09:12:32;;;;;;;81.05;35.40;;;-2.10;99.90;;;;;;6269592;22;20023;-83
2023/01/21 09:14:57;;;;;;;88.88;36.08;;;-1.70;99.90;;;;;;6270175;22;20015;-83
2023/01/21 09:17:23;;;;;;;83.57;35.75;;;-1.90;99.90;;;;;;6270902;22;20039;-82
2023/01/21 09:19:48;;;;;;;98.90;39.75;;;-1.50;99.90;;;;;;6268449;22;20103;-83
2023/01/21 09:22:15;;;;;;;88.70;36.13;;;-1.30;99.90;;;;;;6270718;22;20018;-84
2023/01/21 09:24:40;;;;;;;98.32;37.72;;;-1.40;99.90;;;;;;6270173;22;20050;-83
2023/01/21 09:27:06;;;;;;;89.65;36.80;;;-1.70;99.90;;;;;;6267813;22;20007;-82
2023/01/21 09:29:33;;;;;;;90.68;36.33;;;-1.60;99.90;;;;;;6266069;22;20055;-81
2023/01/21 09:31:59;;;;;;;90.28;38.08;;;-1.50;99.90;;;;;;6243994;22;20019;-81
2023/01/21 09:34:24;;;;;;;85.53;35.88;;;-1.60;99.90;;;;;;6249262;22;20068;-81
2023/01/21 09:36:50;;;;;;;87.32;38.20;;;-1.60;99.90;;;;;;6250911;22;20011;-81
2023/01/21 09:39:16;;;;;;;93.03;38.47;;;-1.50;99.90;;;;;;6245624;22;20015;-81
2023/01/21 09:41:48;;;;;;;89.10;40.13;;;-1.30;99.90;;;;;;6268509;22;20026;-82
2023/01/21 09:44:35;;;;;;;93.32;38.88;;;-0.80;99.90;;;;;;6241616;22;20012;-82
2023/01/21 09:47:37;;;;;;;90.40;36.75;;;-1.20;99.90;;;;;;6240235;22;20027;-82
2023/01/21 09:50:25;;;;;;;84.80;37.70;;;-1.20;99.90;;;;;;6272238;22;20012;-83
2023/01/21 10:01:12;;;;;;;100.88;43.35;;;-0.40;99.90;;;;;;6273040;22;20090;-82
2023/01/21 10:11:35;;;;;;;104.57;41.33;;;0.40;99.90;;;;;;6178721;23;20059;-81
2023/01/21 10:14:31;;;;;;;88.68;37.08;;;0.40;99.90;;;;;;6175841;23;20013;-83
2023/01/21 10:17:25;;;;;;;72.85;34.90;;;0.70;99.90;;;;;;6153916;23;20045;-83
2023/01/21 10:19:54;;;;;;;73.25;34.10;;;0.20;99.90;;;;;;6155633;23;20021;-82
2023/01/21 10:22:27;;;;;;;66.78;33.17;;;0.30;99.90;;;;;;6155672;23;20310;-81
2023/01/21 10:25:01;;;;;;;76.78;34.50;;;0.30;99.90;;;;;;6153701;23;20031;-80
2023/01/21 10:27:31;;;;;;;75.95;34.45;;;0.60;99.90;;;;;;6153441;23;20012;-80
2023/01/21 10:30:08;;;;;;;65.00;32.20;;;0.60;99.90;;;;;;6177747;23;20017;-83
2023/01/21 10:32:38;;;;;;;66.28;32.38;;;1.00;99.90;;;;;;6128497;23;20099;-82
2023/01/21 10:35:17;;;;;;;62.55;30.45;;;0.70;99.90;;;;;;6156650;23;20013;-82
2023/01/21 10:37:53;;;;;;;56.33;27.38;;;1.20;99.90;;;;;;6151406;23;20394;-80
2023/01/21 10:40:43;;;;;;;57.22;29.38;;;1.00;99.90;;;;;;6155081;23;20092;-83
2023/01/21 10:43:09;;;;;;;51.72;27.38;;;0.90;99.90;;;;;;6217178;22;20501;-82
2023/01/21 10:45:54;;;;;;;48.58;26.55;;;1.10;99.90;;;;;;6274500;22;20039;-83
2023/01/21 10:48:39;;;;;;;;;;;1.30;99.90;;;;;;6248777;22;20011;-82
2023/01/21 10:51:43;;;;;;;43.03;23.33;;;1.50;99.90;;;;;;6253561;22;19918;-82
2023/01/21 10:54:21;;;;;;;42.38;23.45;;;1.50;99.90;;;;;;6273539;22;20431;-82
2023/01/21 10:56:58;;;;;;;43.67;24.30;;;1.80;99.90;;;;;;6274300;22;20046;-82
2023/01/21 10:59:29;;;;;;;37.67;20.75;;;1.80;99.90;;;;;;6272714;22;20070;-82
2023/01/21 11:02:27;;;;;;;38.05;20.95;;;2.20;99.90;;;;;;6247996;22;20050;-82
2023/01/21 11:04:57;;;;;;;30.48;20.10;;;1.90;99.90;;;;;;6273645;22;20118;-82
2023/01/21 11:07:24;;;;;;;30.98;20.00;;;1.90;99.90;;;;;;6275733;22;20008;-82
2023/01/21 11:09:51;;;;;;;37.95;20.58;;;1.90;99.90;;;;;;6272346;22;20023;-82
2023/01/21 11:12:20;;;;;;;33.17;20.98;;;1.80;99.90;;;;;;6245836;22;20023;-82
2023/01/21 11:14:56;;;;;;;31.40;19.20;;;1.90;99.90;;;;;;6273616;22;20023;-83
2023/01/21 11:17:36;;;;;;;32.40;20.40;;;2.00;99.90;;;;;;6247242;22;20053;-83
2023/01/21 11:20:06;;;;;;;32.45;20.40;;;2.10;99.90;;;;;;6247695;22;20473;-83
2023/01/21 11:22:31;;;;;;;34.40;19.58;;;2.00;99.90;;;;;;6272686;22;20054;-83
2023/01/21 11:24:59;;;;;;;29.23;18.83;;;2.00;99.90;;;;;;6247066;22;20317;-83
2023/01/21 11:27:32;;;;;;;27.77;18.08;;;2.20;99.90;;;;;;6247991;22;20373;-83
2023/01/21 11:29:58;;;;;;;27.25;16.45;;;2.20;99.90;;;;;;6274988;22;20016;-83
2023/01/21 11:32:26;;;;;;;26.52;17.58;;;2.30;99.90;;;;;;6274796;22;20022;-83
2023/01/21 11:35:07;;;;;;;25.17;16.30;;;2.20;99.90;;;;;;6272081;22;20047;-82
2023/01/21 11:37:34;;;;;;;24.90;16.48;;;2.10;99.90;;;;;;6273096;22;20015;-82
2023/01/21 11:40:10;;;;;;;24.08;15.90;;;2.50;99.90;;;;;;6273417;22;20066;-82
2023/01/21 11:42:49;;;;;;;24.42;15.80;;;2.10;99.90;;;;;;6272446;22;20026;-82
2023/01/21 11:45:35;;;;;;;23.17;14.32;;;2.30;99.90;;;;;;6273040;22;20008;-84
2023/01/21 11:48:01;;;;;;;25.40;14.50;;;2.40;99.90;;;;;;6246782;22;20080;-81
2023/01/21 11:50:30;;;;;;;21.83;13.65;;;2.30;99.90;;;;;;6273109;22;20020;-83
2023/01/21 11:53:05;;;;;;;22.60;13.73;;;2.60;99.90;;;;;;6271490;22;20438;-83
2023/01/21 11:55:41;;;;;;;19.30;13.93;;;2.70;99.90;;;;;;6247503;22;20108;-83
2023/01/21 11:58:19;;;;;;;15.27;11.50;;;2.80;99.90;;;;;;6268601;22;20058;-82
2023/01/21 12:00:50;;;;;;;14.13;10.48;;;2.70;99.90;;;;;;6243094;22;20437;-82
2023/01/21 12:03:21;;;;;;;18.88;12.63;;;2.70;99.90;;;;;;6269143;22;20257;-81
2023/01/21 12:05:52;;;;;;;16.63;10.80;;;2.70;99.90;;;;;;6243445;22;20019;-81
2023/01/21 12:08:24;;;;;;;17.05;11.23;;;2.90;99.90;;;;;;6241514;22;20022;-81
2023/01/21 12:10:55;;;;;;;15.68;11.07;;;2.80;99.90;;;;;;6244999;22;20019;-84
2023/01/21 12:13:48;;;;;;;14.63;9.90;;;2.90;99.90;;;;;;6243822;22;20803;-81
2023/01/21 12:17:00;;;;;;;15.38;8.98;;;2.90;99.90;;;;;;6272208;22;20019;-81
2023/01/21 12:20:00;;;;;;;14.75;8.45;;;2.80;99.90;;;;;;6100039;23;20017;-81
2023/01/21 12:22:41;;;;;;;10.82;7.68;;;2.80;99.90;;;;;;6121621;23;20083;-83
2023/01/21 12:25:40;;;;;;;10.73;6.53;;;2.90;99.90;;;;;;6096585;23;20028;-83
2023/01/21 12:28:26;;;;;;;8.77;6.35;;;2.90;99.90;;;;;;6095625;23;20022;-82
2023/01/21 12:31:28;;;;;;;10.32;7.30;;;3.00;99.90;;;;;;6150434;23;20013;-84
2023/01/21 12:34:16;;;;;;;;;;;;;;;;;;;;;
2023/01/21 12:40:31;;;;;;;5.70;4.13;;;3.10;99.90;;;;;;6171472;23;20112;-83
2023/01/21 12:43:31;;;;;;;9.20;4.90;;;3.00;99.90;;;;;;6122787;23;20022;-85
2023/01/21 12:46:09;;;;;;;4.95;4.00;;;3.10;99.90;;;;;;6106484;23;20021;-85
2023/01/21 12:48:52;;;;;;;7.30;3.65;;;3.20;99.90;;;;;;6102551;23;20065;-85
2023/01/21 12:51:28;;;;;;;6.43;4.32;;;3.30;99.90;;;;;;6248024;22;20098;-85
2023/01/21 12:54:08;;;;;;;4.93;4.00;;;3.20;99.90;;;;;;6245691;22;20115;-85
2023/01/21 12:56:53;;;;;;;6.32;4.60;;;3.20;99.90;;;;;;6246954;22;20449;-85
2023/01/21 12:59:35;;;;;;;6.95;4.68;;;3.30;99.90;;;;;;6271987;22;20034;-82
2023/01/21 13:02:28;;;;;;;6.88;4.00;;;3.20;99.90;;;;;;6246606;22;20012;-85
2023/01/21 13:05:02;;;;;;;6.78;4.20;;;3.20;99.90;;;;;;6273521;22;20436;-82
2023/01/21 13:08:03;;;;;;;5.17;3.63;;;3.10;99.90;;;;;;6272455;22;20040;-86
2023/01/21 13:10:36;;;;;;;6.53;3.75;;;3.30;99.90;;;;;;6243066;22;20045;-82
2023/01/21 13:13:22;;;;;;;6.57;4.35;;;3.10;99.90;;;;;;6270373;22;20018;-82
2023/01/21 13:15:52;;;;;;;4.72;3.88;;;3.10;99.90;;;;;;6269480;22;20133;-83
2023/01/21 13:18:34;;;;;;;6.00;4.35;;;3.10;99.90;;;;;;6268369;22;20031;-83
2023/01/21 13:21:34;;;;;;;8.55;4.40;;;3.10;99.90;;;;;;6245327;22;20101;-82
2023/01/21 13:24:49;;;;;;;6.43;4.50;;;3.10;99.90;;;;;;6271463;22;20412;-81